Uman, Ukraine
Current Conditions -  °F | °C
As of 10:00 AM on Sunday 26 Oct 2014 (Local Time) from UKKK Reporting Station
Clear Clear  
Wind Chill: 28°   Ceiling: Unl
Heat Index: 32°   Visibility: 6mi
Dew Point: 21°   Wind: 4mph
Humidity: 64%   Direction: 140°SE
Pressure: 30.62"   Gusts: NA
Location:  48.75°N, 30.22°E
Report Text: UKKK 260700Z 14002MPS 080V190 CAVOK M00/M06 Q1037 08CLRD70 NOSIG
Loading
Personal Weather Stations






























Interactive Weather Map
Tropical Storm Tracking
New forecast layout! Learn more

10-Day Weather Forecast

Advertisements
Track Severe Weather on mobile